createdAt,value
2018-09-14T00:01:20.471Z,7.27
2018-09-14T00:03:51.621Z,8.97
2018-09-14T00:06:22.470Z,6.70
2018-09-14T00:08:58.943Z,9.40
2018-09-14T00:11:30.188Z,7.90
2018-09-14T00:14:01.014Z,6.43
2018-09-14T00:16:31.817Z,8.37
2018-09-14T00:19:02.738Z,7.30
2018-09-14T00:21:33.718Z,11.23
2018-09-14T00:24:04.482Z,7.67
2018-09-14T00:26:35.254Z,8.80
2018-09-14T00:29:06.462Z,9.23
2018-09-14T00:31:37.260Z,7.83
2018-09-14T00:34:08.398Z,8.30
2018-09-14T00:36:39.179Z,8.67
2018-09-14T00:39:11.752Z,10.67
2018-09-14T00:41:42.600Z,7.43
2018-09-14T00:44:13.557Z,7.07
2018-09-14T00:46:44.554Z,7.27
2018-09-14T00:49:15.395Z,6.87
2018-09-14T00:51:46.250Z,8.00
2018-09-14T00:54:17.042Z,7.07
2018-09-14T00:56:48.046Z,8.77
2018-09-14T00:59:19.182Z,10.60
2018-09-14T01:01:50.023Z,9.67
2018-09-14T01:04:26.906Z,9.77
2018-09-14T01:06:57.734Z,9.00
2018-09-14T01:09:29.165Z,7.67
2018-09-14T01:12:00.852Z,7.23
2018-09-14T01:14:31.741Z,7.87
2018-09-14T01:17:02.544Z,9.20
2018-09-14T01:19:33.490Z,6.53
2018-09-14T01:22:04.303Z,8.17
2018-09-14T01:24:35.166Z,9.47
2018-09-14T01:27:06.084Z,8.53
2018-09-14T01:29:37.234Z,9.93
2018-09-14T01:32:08.088Z,10.60
2018-09-14T01:34:39.158Z,6.47
2018-09-14T01:37:09.921Z,7.83
2018-09-14T01:39:40.805Z,11.70
2018-09-14T01:42:11.612Z,8.20
2018-09-14T01:44:42.417Z,5.83
2018-09-14T01:47:13.205Z,9.57
2018-09-14T01:49:44.226Z,7.90
2018-09-14T01:52:14.939Z,8.77
2018-09-14T01:54:45.724Z,6.93
2018-09-14T01:57:16.509Z,6.07
2018-09-14T01:59:47.341Z,11.43
2018-09-14T02:02:18.149Z,10.80
2018-09-14T02:04:49.435Z,6.60
2018-09-14T02:07:20.856Z,7.13
2018-09-14T02:09:51.986Z,8.17
2018-09-14T02:12:22.735Z,6.87
2018-09-14T02:14:53.679Z,8.57
2018-09-14T02:17:24.593Z,8.47
2018-09-14T02:19:55.632Z,8.60
2018-09-14T02:22:26.393Z,8.50
2018-09-14T02:24:57.246Z,9.77
2018-09-14T02:27:28.035Z,7.20
2018-09-14T02:29:59.906Z,11.90
2018-09-14T02:32:30.677Z,6.47
2018-09-14T02:35:01.947Z,10.57
2018-09-14T02:37:35.303Z,8.27
2018-09-14T02:40:06.715Z,7.47
2018-09-14T02:42:37.542Z,8.40
2018-09-14T02:45:08.459Z,8.37
2018-09-14T02:47:39.222Z,9.43
2018-09-14T02:50:10.093Z,6.60
2018-09-14T02:52:40.865Z,10.07
2018-09-14T02:55:13.145Z,7.27
2018-09-14T02:57:43.862Z,9.73
2018-09-14T03:00:15.024Z,9.57
2018-09-14T03:02:45.758Z,7.90
2018-09-14T03:05:16.933Z,6.83
2018-09-14T03:07:49.404Z,7.50
2018-09-14T03:10:20.703Z,8.20
2018-09-14T03:12:51.653Z,6.67
2018-09-14T03:15:22.552Z,6.73
2018-09-14T03:17:54.532Z,7.83
2018-09-14T03:20:25.235Z,9.03
2018-09-14T03:22:56.139Z,10.80
2018-09-14T03:25:27.054Z,6.83
2018-09-14T03:27:59.437Z,7.33
2018-09-14T03:30:30.205Z,8.30
2018-09-14T03:33:01.210Z,9.37
2018-09-14T03:35:32.309Z,7.03
2018-09-14T03:38:04.081Z,7.10
2018-09-14T03:40:35.296Z,9.20
2018-09-14T03:43:06.048Z,7.83
2018-09-14T03:45:36.832Z,8.40
2018-09-14T03:48:07.670Z,9.80
2018-09-14T03:50:38.466Z,6.93
2018-09-14T03:53:09.185Z,10.20
2018-09-14T03:55:40.884Z,9.07
2018-09-14T03:58:11.661Z,8.13
2018-09-14T04:00:42.459Z,9.53
2018-09-14T04:03:13.419Z,9.90
2018-09-14T04:05:44.631Z,8.17
2018-09-14T04:08:15.534Z,6.37
2018-09-14T04:10:46.407Z,7.43
2018-09-14T04:13:17.293Z,8.83
2018-09-14T04:15:48.208Z,9.17
2018-09-14T04:18:18.929Z,8.90
2018-09-14T04:20:49.704Z,9.30
2018-09-14T04:23:20.426Z,7.13
2018-09-14T04:25:51.182Z,10.00
2018-09-14T04:28:22.799Z,13.77
2018-09-14T04:30:54.876Z,8.43
2018-09-14T04:33:26.180Z,9.00
2018-09-14T04:35:57.823Z,7.90
2018-09-14T04:38:30.497Z,10.40
2018-09-14T04:41:01.237Z,11.07
2018-09-14T04:43:32.520Z,15.10
2018-09-14T04:46:03.586Z,13.07
2018-09-14T04:48:35.657Z,11.27
2018-09-14T04:51:07.055Z,12.80
2018-09-14T04:53:37.952Z,7.03
2018-09-14T04:56:10.342Z,9.70
2018-09-14T04:58:41.093Z,11.43
2018-09-14T05:01:12.145Z,8.57
2018-09-14T05:10:11.084Z,11.30
2018-09-14T05:12:41.946Z,10.13
2018-09-14T05:15:12.813Z,9.70
2018-09-14T06:14:06.700Z,18.23
2018-09-14T06:16:38.118Z,12.27
2018-09-14T06:19:09.144Z,11.43
2018-09-14T06:21:40.113Z,31.37
2018-09-14T06:24:11.146Z,26.73
2018-09-14T06:26:42.497Z,26.57
2018-09-14T06:29:13.965Z,22.97
2018-09-14T06:31:46.464Z,29.50
2018-09-14T06:34:17.540Z,25.67
2018-09-14T06:36:48.565Z,24.13
2018-09-14T06:39:19.853Z,9.30
2018-09-14T06:41:50.825Z,8.73
2018-09-14T06:44:21.719Z,7.80
2018-09-14T06:46:52.683Z,9.73
2018-09-14T06:49:23.616Z,10.57
2018-09-14T06:51:54.564Z,8.03
2018-09-14T06:54:25.481Z,6.90
2018-09-14T06:56:56.522Z,9.50
2018-09-14T06:59:27.420Z,11.47
2018-09-14T07:01:58.313Z,8.03
2018-09-14T07:04:29.214Z,8.80
2018-09-14T07:07:00.253Z,7.63
2018-09-14T07:09:31.675Z,13.23
2018-09-14T07:12:02.654Z,11.00
2018-09-14T07:14:33.568Z,11.73
2018-09-14T07:17:04.526Z,8.63
2018-09-14T07:19:35.535Z,6.43
2018-09-14T07:22:06.389Z,7.33
2018-09-14T07:24:37.317Z,9.07
2018-09-14T07:27:08.567Z,9.13
2018-09-14T07:29:39.595Z,7.97
2018-09-14T07:32:10.508Z,8.23
2018-09-14T07:34:41.404Z,8.93
2018-09-14T07:37:13.692Z,6.33
2018-09-14T07:39:44.889Z,9.63
2018-09-14T07:42:25.252Z,8.40
2018-09-14T07:44:56.143Z,9.00
2018-09-14T07:47:27.023Z,9.70
2018-09-14T07:49:57.944Z,8.50
2018-09-14T07:52:29.024Z,8.93
2018-09-14T07:55:00.010Z,8.10
2018-09-14T07:57:30.895Z,9.23
2018-09-14T08:00:01.988Z,8.70
2018-09-14T08:02:34.009Z,8.23
2018-09-14T08:05:05.354Z,6.97
2018-09-14T08:07:36.817Z,8.13
2018-09-14T08:10:08.155Z,6.90
2018-09-14T08:12:40.380Z,7.50
2018-09-14T08:15:11.292Z,9.50
2018-09-14T08:17:42.196Z,10.00
2018-09-14T08:20:13.119Z,8.40
2018-09-14T08:22:44.022Z,6.00
2018-09-14T08:25:15.889Z,8.03
2018-09-14T08:27:46.807Z,7.23
2018-09-14T08:30:18.691Z,7.90
2018-09-14T08:32:49.633Z,9.03
2018-09-14T08:35:20.544Z,9.37
2018-09-14T08:37:51.533Z,7.70
2018-09-14T08:40:23.512Z,8.53
2018-09-14T08:42:54.473Z,5.90
2018-09-14T08:45:25.390Z,5.90
2018-09-14T08:47:56.327Z,8.10
2018-09-14T08:50:27.453Z,8.40
2018-09-14T08:52:58.423Z,9.37
2018-09-14T08:55:29.319Z,8.17
2018-09-14T08:58:00.419Z,9.47
2018-09-14T09:00:31.267Z,7.70
2018-09-14T09:03:03.753Z,7.57
2018-09-14T09:05:34.949Z,10.53
2018-09-14T09:08:05.879Z,11.80
2018-09-14T09:10:38.073Z,10.10
2018-09-14T09:13:14.714Z,8.27
2018-09-14T09:15:46.636Z,9.17
2018-09-14T09:18:17.535Z,8.43
2018-09-14T09:20:48.511Z,9.73
2018-09-14T09:23:20.567Z,11.70
2018-09-14T09:25:51.402Z,8.07
2018-09-14T09:28:22.313Z,9.27
2018-09-14T09:30:53.214Z,8.33
2018-09-14T09:36:22.353Z,12.50
2018-09-14T09:38:53.405Z,7.53
2018-09-14T09:41:24.736Z,10.43
2018-09-14T09:43:57.634Z,10.33
2018-09-14T09:46:28.668Z,11.80
2018-09-14T09:48:59.772Z,7.53
2018-09-14T09:51:30.797Z,6.63
2018-09-14T09:54:02.818Z,7.90
2018-09-14T09:56:33.877Z,8.17
2018-09-14T09:59:04.821Z,8.00
2018-09-14T10:01:40.865Z,13.33
2018-09-14T10:04:16.921Z,13.30
2018-09-14T10:06:47.806Z,9.87
2018-09-14T10:09:18.755Z,8.40
2018-09-14T10:11:50.218Z,6.10
2018-09-14T10:30:19.515Z,5.20
2018-09-14T10:32:50.370Z,7.63
2018-09-14T10:35:22.599Z,7.53
2018-09-14T10:37:53.759Z,7.23
2018-09-14T10:40:24.546Z,5.53
2018-09-14T10:42:56.840Z,11.23
2018-09-14T10:45:28.765Z,17.73
2018-09-14T10:47:59.579Z,11.10
2018-09-14T10:50:30.407Z,6.77
2018-09-14T10:53:01.875Z,7.83
2018-09-14T10:55:32.718Z,6.60
2018-09-14T10:58:03.650Z,6.33
2018-09-14T11:00:34.965Z,8.30
2018-09-14T11:03:05.875Z,5.70
2018-09-14T11:05:36.970Z,7.30
2018-09-14T11:08:08.453Z,11.97
2018-09-14T11:10:39.493Z,8.87
2018-09-14T11:13:10.398Z,8.07
2018-09-14T11:15:41.367Z,6.93
2018-09-14T11:18:12.302Z,7.80
2018-09-14T11:20:43.108Z,7.97
2018-09-14T11:23:14.078Z,6.53
2018-09-14T11:25:44.905Z,6.43
2018-09-14T11:28:15.698Z,8.10
2018-09-14T11:30:46.665Z,8.00
2018-09-14T11:33:19.671Z,6.90
2018-09-14T11:35:51.944Z,8.37
2018-09-14T11:38:23.118Z,10.20
2018-09-14T11:40:53.758Z,6.70
2018-09-14T11:43:24.897Z,6.30
2018-09-14T11:45:57.300Z,6.50
2018-09-14T11:48:28.147Z,6.07
2018-09-14T11:50:58.880Z,8.97
2018-09-14T11:53:29.722Z,6.90
2018-09-14T11:56:01.745Z,8.27
2018-09-14T11:58:32.603Z,7.20
2018-09-14T12:01:03.404Z,8.60
2018-09-14T12:03:34.400Z,6.60
2018-09-14T12:06:06.277Z,7.80
2018-09-14T12:08:39.190Z,8.40
2018-09-14T12:11:10.250Z,8.80
2018-09-14T12:13:41.640Z,7.50
2018-09-14T12:16:12.416Z,7.77
2018-09-14T12:18:43.310Z,8.00
2018-09-14T12:21:14.076Z,7.83
2018-09-14T12:23:44.833Z,7.83
2018-09-14T12:26:15.594Z,13.33
2018-09-14T12:28:46.873Z,13.20
2018-09-14T12:31:19.593Z,22.47
2018-09-14T12:33:51.944Z,12.40
2018-09-14T12:36:22.703Z,17.13
2018-09-14T12:38:53.500Z,22.23
2018-09-14T12:41:24.240Z,19.80
2018-09-14T12:43:55.148Z,15.07
2018-09-14T12:46:26.017Z,12.80
2018-09-14T12:48:56.861Z,8.40
2018-09-14T12:51:27.866Z,9.53
2018-09-14T12:53:59.537Z,7.97
2018-09-14T12:56:30.925Z,9.60
2018-09-14T12:59:01.862Z,16.53
2018-09-14T13:01:32.659Z,10.83
2018-09-14T13:04:03.487Z,10.50
2018-09-14T13:06:35.087Z,11.53
2018-09-14T13:09:09.260Z,13.70
2018-09-14T13:11:40.799Z,11.23
2018-09-14T13:14:12.883Z,11.37
2018-09-14T13:16:43.722Z,13.60
2018-09-14T13:19:14.558Z,11.83
2018-09-14T13:21:45.352Z,12.57
2018-09-14T13:24:17.456Z,14.10
2018-09-14T13:26:48.953Z,15.73
2018-09-14T13:29:19.783Z,11.27
2018-09-14T13:31:52.987Z,13.23
2018-09-14T13:34:25.812Z,15.33
2018-09-14T13:36:56.794Z,14.13
2018-09-14T13:39:27.564Z,11.33
2018-09-14T13:41:59.591Z,9.90
2018-09-14T13:44:30.982Z,12.77
2018-09-14T13:47:02.237Z,11.87
2018-09-14T13:49:33.495Z,12.43
2018-09-14T13:52:05.166Z,9.80
2018-09-14T13:54:36.004Z,11.40
2018-09-14T13:57:08.384Z,7.83
2018-09-14T13:59:39.350Z,9.23
2018-09-14T14:02:10.837Z,7.00
2018-09-14T14:04:44.590Z,9.57
2018-09-14T14:07:15.487Z,35.70
2018-09-14T14:09:46.328Z,20.27
2018-09-14T14:12:17.001Z,13.10
2018-09-14T14:14:47.848Z,14.50
2018-09-14T14:17:18.643Z,10.10
2018-09-14T14:19:49.870Z,12.20
2018-09-14T14:22:21.180Z,9.03
2018-09-14T14:24:51.973Z,10.27
2018-09-14T14:27:23.919Z,9.77
2018-09-14T14:29:55.648Z,9.10
2018-09-14T14:32:26.716Z,6.70
2018-09-14T14:34:58.260Z,9.60
2018-09-14T14:37:29.651Z,13.57
2018-09-14T14:40:01.358Z,10.70
2018-09-14T14:42:34.683Z,13.20
2018-09-14T14:45:06.351Z,16.63
2018-09-14T14:47:39.529Z,18.90
2018-09-14T14:50:10.577Z,15.00
2018-09-14T14:52:42.053Z,20.07
2018-09-14T14:55:13.954Z,13.43
2018-09-14T14:57:44.980Z,13.23
2018-09-14T15:00:15.947Z,25.60
2018-09-14T15:02:50.029Z,18.73
2018-09-14T15:05:21.295Z,16.20
2018-09-14T15:07:52.128Z,25.87
2018-09-14T15:10:23.103Z,33.40
2018-09-14T15:12:54.683Z,22.57
2018-09-14T15:15:26.710Z,17.67
2018-09-14T15:17:57.684Z,19.03
2018-09-14T15:20:28.851Z,20.20
2018-09-14T15:23:00.462Z,17.60
2018-09-14T15:25:31.834Z,15.53
2018-09-14T15:28:02.953Z,19.13
2018-09-14T15:30:33.862Z,20.37
2018-09-14T15:33:05.307Z,18.93
2018-09-14T15:35:36.861Z,16.30
2018-09-14T15:38:07.919Z,18.07
2018-09-14T15:40:38.788Z,21.23
2018-09-14T15:43:11.290Z,20.67
2018-09-14T15:45:43.052Z,18.60
2018-09-14T15:48:14.992Z,22.57
2018-09-14T15:50:46.488Z,21.63
2018-09-14T15:53:19.075Z,22.43
2018-09-14T15:55:50.121Z,22.33
2018-09-14T15:58:22.148Z,23.53
2018-09-14T16:00:54.124Z,26.17
2018-09-14T16:03:27.051Z,24.97
2018-09-14T16:05:58.167Z,20.73
2018-09-14T16:08:29.319Z,22.97
2018-09-14T16:11:00.432Z,25.43
2018-09-14T16:13:33.817Z,25.10
2018-09-14T16:16:04.902Z,26.27
2018-09-14T16:18:35.983Z,25.10
2018-09-14T16:21:06.864Z,23.20
2018-09-14T16:23:38.875Z,29.27
2018-09-14T16:26:10.636Z,22.93
2018-09-14T16:28:41.557Z,26.93
2018-09-14T16:31:15.517Z,24.10
2018-09-14T16:33:47.612Z,28.63
2018-09-14T16:36:19.655Z,26.53
2018-09-14T16:38:51.451Z,27.20
2018-09-14T16:41:25.382Z,25.40
2018-09-14T16:43:56.178Z,28.17
2018-09-14T16:46:28.025Z,27.03
2018-09-14T16:48:59.049Z,28.37
2018-09-14T16:51:30.657Z,27.93
2018-09-14T16:54:01.438Z,28.40
2018-09-14T16:56:33.303Z,27.00
2018-09-14T16:59:08.110Z,24.80
2018-09-14T17:01:40.975Z,25.60
2018-09-14T17:04:11.963Z,29.57
2018-09-14T17:06:43.999Z,29.17
2018-09-14T17:09:15.352Z,27.73
2018-09-14T17:11:46.562Z,27.17
2018-09-14T17:14:18.666Z,27.37
2018-09-14T17:16:51.405Z,44.47
2018-09-14T17:19:22.365Z,30.63
2018-09-14T17:21:55.432Z,28.97
2018-09-14T17:24:26.225Z,26.10
2018-09-14T17:26:58.773Z,26.73
2018-09-14T17:29:29.620Z,25.13
2018-09-14T17:32:01.590Z,25.17
2018-09-14T17:34:37.359Z,24.33
2018-09-14T17:37:08.669Z,24.90
2018-09-14T17:39:39.565Z,22.40
2018-09-14T17:42:11.368Z,24.57
2018-09-14T17:44:42.352Z,24.13
2018-09-14T17:47:13.543Z,26.87
2018-09-14T17:49:45.011Z,23.27
2018-09-14T17:52:16.511Z,25.80
2018-09-14T17:54:47.447Z,21.60
2018-09-14T17:57:18.536Z,24.13
2018-09-14T17:59:49.747Z,25.20
2018-09-14T18:02:20.636Z,24.90
2018-09-14T18:04:51.587Z,73.50
2018-09-14T18:07:22.624Z,93.00
2018-09-14T18:09:54.949Z,25.27
2018-09-14T18:12:25.938Z,21.67
2018-09-14T18:14:56.827Z,22.17
2018-09-14T18:17:31.443Z,20.60
2018-09-14T18:20:02.465Z,21.97
2018-09-14T18:22:33.472Z,27.47
2018-09-14T18:25:05.743Z,19.70
2018-09-14T18:27:36.629Z,23.10
2018-09-14T18:30:08.954Z,19.93
2018-09-14T18:32:41.915Z,20.97
2018-09-14T18:35:19.275Z,19.17
2018-09-14T19:24:23.277Z,20.67
2018-09-14T19:27:00.227Z,20.37
2018-09-14T19:29:32.852Z,22.17
2018-09-14T19:32:03.854Z,22.97
2018-09-14T19:34:34.794Z,24.60
2018-09-14T19:37:11.796Z,22.37
2018-09-14T19:39:42.898Z,22.17
2018-09-14T19:42:19.699Z,25.07
2018-09-14T19:44:53.831Z,21.63
2018-09-14T19:47:24.682Z,21.70
2018-09-14T19:49:56.204Z,21.73
2018-09-14T19:52:27.694Z,21.40
2018-09-14T19:54:59.472Z,21.87
2018-09-14T19:57:31.644Z,23.30
2018-09-14T20:00:04.760Z,21.07
2018-09-14T20:02:36.666Z,18.47
2018-09-14T20:05:09.878Z,19.70
2018-09-14T20:07:55.110Z,23.07
2018-09-14T20:10:54.619Z,21.40
2018-09-14T20:13:33.458Z,20.50
2018-09-14T20:16:04.731Z,22.77
2018-09-14T20:18:35.965Z,19.67
2018-09-14T20:21:06.943Z,22.80
2018-09-14T20:23:38.004Z,24.43
2018-09-14T20:26:09.329Z,25.90
2018-09-14T20:28:40.400Z,27.00
2018-09-14T20:31:11.913Z,25.33
2018-09-14T20:33:42.868Z,23.63
2018-09-14T20:36:13.890Z,23.53
2018-09-14T20:38:46.697Z,25.53
2018-09-14T20:41:18.281Z,26.87
2018-09-14T20:43:50.009Z,27.33
2018-09-14T20:46:23.403Z,29.77
2018-09-14T20:48:54.815Z,26.00
2018-09-14T20:51:27.891Z,29.77
2018-09-14T20:54:00.871Z,24.60
2018-09-14T20:56:35.017Z,26.97
2018-09-14T20:59:09.652Z,26.27
2018-09-14T21:01:42.883Z,26.47
2018-09-14T21:04:16.752Z,22.77
2018-09-14T21:06:47.999Z,22.67
2018-09-14T21:09:19.279Z,25.20
2018-09-14T21:11:54.386Z,21.83
2018-09-14T21:14:36.845Z,21.43
2018-09-14T21:17:07.869Z,14.43
2018-09-14T21:19:40.084Z,15.10
